sensor_id;sensor_type;location;lat;lon;timestamp;temperature;humidity
21023;DHT22;10669;51.076;3.714;2022-11-15T00:00:27;11.20;99.90
21023;DHT22;10669;51.076;3.714;2022-11-15T00:02:53;11.20;99.90
21023;DHT22;10669;51.076;3.714;2022-11-15T00:05:20;11.20;99.90
21023;DHT22;10669;51.076;3.714;2022-11-15T00:07:45;11.20;99.90
21023;DHT22;10669;51.076;3.714;2022-11-15T00:10:11;11.20;99.90
21023;DHT22;10669;51.076;3.714;2022-11-15T00:12:38;11.20;99.90
21023;DHT22;10669;51.076;3.714;2022-11-15T00:15:05;11.30;99.90
21023;DHT22;10669;51.076;3.714;2022-11-15T00:17:30;11.40;99.90
21023;DHT22;10669;51.076;3.714;2022-11-15T00:19:56;11.40;99.90
21023;DHT22;10669;51.076;3.714;2022-11-15T00:22:24;11.40;99.90
21023;DHT22;10669;51.076;3.714;2022-11-15T00:24:50;11.60;99.90
21023;DHT22;10669;51.076;3.714;2022-11-15T00:27:16;11.50;99.90
21023;DHT22;10669;51.076;3.714;2022-11-15T00:29:42;11.50;99.90
21023;DHT22;10669;51.076;3.714;2022-11-15T00:32:10;11.50;99.90
21023;DHT22;10669;51.076;3.714;2022-11-15T00:34:37;11.60;99.90
21023;DHT22;10669;51.076;3.714;2022-11-15T00:37:05;11.70;99.90
21023;DHT22;10669;51.076;3.714;2022-11-15T00:39:31;11.70;99.90
21023;DHT22;10669;51.076;3.714;2022-11-15T00:42:00;11.70;99.90
21023;DHT22;10669;51.076;3.714;2022-11-15T00:44:25;11.70;99.90
21023;DHT22;10669;51.076;3.714;2022-11-15T00:46:51;11.70;99.90
21023;DHT22;10669;51.076;3.714;2022-11-15T00:49:18;11.70;99.90
21023;DHT22;10669;51.076;3.714;2022-11-15T00:51:44;11.70;99.90
21023;DHT22;10669;51.076;3.714;2022-11-15T00:54:13;11.70;99.90
21023;DHT22;10669;51.076;3.714;2022-11-15T00:56:38;11.70;99.90
21023;DHT22;10669;51.076;3.714;2022-11-15T00:59:11;11.70;99.90
21023;DHT22;10669;51.076;3.714;2022-11-15T01:01:37;11.70;99.90
21023;DHT22;10669;51.076;3.714;2022-11-15T01:04:03;11.70;99.90
21023;DHT22;10669;51.076;3.714;2022-11-15T01:06:29;11.70;99.90
21023;DHT22;10669;51.076;3.714;2022-11-15T01:08:55;11.70;99.90
21023;DHT22;10669;51.076;3.714;2022-11-15T01:11:20;11.80;99.90
21023;DHT22;10669;51.076;3.714;2022-11-15T01:13:47;11.80;99.90
21023;DHT22;10669;51.076;3.714;2022-11-15T01:16:16;11.70;99.90
21023;DHT22;10669;51.076;3.714;2022-11-15T01:18:43;11.70;99.90
21023;DHT22;10669;51.076;3.714;2022-11-15T01:21:11;11.70;99.90
21023;DHT22;10669;51.076;3.714;2022-11-15T01:23:38;11.70;99.90
21023;DHT22;10669;51.076;3.714;2022-11-15T01:26:07;11.80;99.90
21023;DHT22;10669;51.076;3.714;2022-11-15T01:28:36;11.70;99.90
21023;DHT22;10669;51.076;3.714;2022-11-15T01:31:04;11.70;99.90
21023;DHT22;10669;51.076;3.714;2022-11-15T01:33:30;11.70;99.90
21023;DHT22;10669;51.076;3.714;2022-11-15T01:36:16;11.60;99.90
21023;DHT22;10669;51.076;3.714;2022-11-15T01:38:42;11.60;99.90
21023;DHT22;10669;51.076;3.714;2022-11-15T01:41:15;11.60;99.90
21023;DHT22;10669;51.076;3.714;2022-11-15T01:43:41;11.60;99.90
21023;DHT22;10669;51.076;3.714;2022-11-15T01:46:27;11.70;99.90
21023;DHT22;10669;51.076;3.714;2022-11-15T01:48:57;11.70;99.90
21023;DHT22;10669;51.076;3.714;2022-11-15T01:51:28;11.60;99.90
21023;DHT22;10669;51.076;3.714;2022-11-15T01:53:56;11.60;99.90
21023;DHT22;10669;51.076;3.714;2022-11-15T01:56:25;11.60;99.90
21023;DHT22;10669;51.076;3.714;2022-11-15T01:58:56;11.60;99.90
21023;DHT22;10669;51.076;3.714;2022-11-15T02:01:25;11.60;99.90
21023;DHT22;10669;51.076;3.714;2022-11-15T02:03:59;11.70;99.90
21023;DHT22;10669;51.076;3.714;2022-11-15T02:06:25;11.60;99.90
21023;DHT22;10669;51.076;3.714;2022-11-15T02:08:51;11.70;99.90
21023;DHT22;10669;51.076;3.714;2022-11-15T02:11:16;11.70;99.90
21023;DHT22;10669;51.076;3.714;2022-11-15T02:13:43;11.60;99.90
21023;DHT22;10669;51.076;3.714;2022-11-15T02:19:26;11.70;99.90
21023;DHT22;10669;51.076;3.714;2022-11-15T02:30:56;11.70;99.90
21023;DHT22;10669;51.076;3.714;2022-11-15T02:36:36;11.80;99.90
21023;DHT22;10669;51.076;3.714;2022-11-15T02:39:26;11.80;99.90
21023;DHT22;10669;51.076;3.714;2022-11-15T02:42:00;11.80;99.90
21023;DHT22;10669;51.076;3.714;2022-11-15T02:44:43;11.70;99.90
21023;DHT22;10669;51.076;3.714;2022-11-15T02:47:12;11.70;99.90
21023;DHT22;10669;51.076;3.714;2022-11-15T02:49:49;11.60;99.90
21023;DHT22;10669;51.076;3.714;2022-11-15T02:52:20;11.60;99.90
21023;DHT22;10669;51.076;3.714;2022-11-15T02:54:59;11.60;99.90
21023;DHT22;10669;51.076;3.714;2022-11-15T02:57:41;11.60;99.90
21023;DHT22;10669;51.076;3.714;2022-11-15T03:00:12;11.60;99.90
21023;DHT22;10669;51.076;3.714;2022-11-15T03:02:57;11.50;99.90
21023;DHT22;10669;51.076;3.714;2022-11-15T03:08:07;11.50;99.90
21023;DHT22;10669;51.076;3.714;2022-11-15T03:10:46;11.60;99.90
21023;DHT22;10669;51.076;3.714;2022-11-15T03:13:26;11.50;99.90
21023;DHT22;10669;51.076;3.714;2022-11-15T03:16:33;11.50;99.90
21023;DHT22;10669;51.076;3.714;2022-11-15T03:18:55;11.50;99.90
21023;DHT22;10669;51.076;3.714;2022-11-15T03:21:24;11.50;99.90
21023;DHT22;10669;51.076;3.714;2022-11-15T03:23:50;11.40;99.90
21023;DHT22;10669;51.076;3.714;2022-11-15T03:26:19;11.50;99.90
21023;DHT22;10669;51.076;3.714;2022-11-15T03:28:50;11.50;99.90
21023;DHT22;10669;51.076;3.714;2022-11-15T03:31:21;11.50;99.90
21023;DHT22;10669;51.076;3.714;2022-11-15T03:34:08;11.40;99.90
21023;DHT22;10669;51.076;3.714;2022-11-15T03:36:42;11.30;99.90
21023;DHT22;10669;51.076;3.714;2022-11-15T03:39:09;11.30;99.90
21023;DHT22;10669;51.076;3.714;2022-11-15T03:41:50;11.30;99.90
21023;DHT22;10669;51.076;3.714;2022-11-15T03:44:40;11.30;99.90
21023;DHT22;10669;51.076;3.714;2022-11-15T03:49:55;11.20;99.90
21023;DHT22;10669;51.076;3.714;2022-11-15T03:52:25;11.20;99.90
21023;DHT22;10669;51.076;3.714;2022-11-15T03:54:55;11.30;99.90
21023;DHT22;10669;51.076;3.714;2022-11-15T03:57:21;11.30;99.90
21023;DHT22;10669;51.076;3.714;2022-11-15T03:59:47;11.30;99.90
21023;DHT22;10669;51.076;3.714;2022-11-15T04:02:15;11.30;99.90
21023;DHT22;10669;51.076;3.714;2022-11-15T04:04:40;11.30;99.90
21023;DHT22;10669;51.076;3.714;2022-11-15T04:07:06;11.30;99.90
21023;DHT22;10669;51.076;3.714;2022-11-15T04:09:35;11.40;99.90
21023;DHT22;10669;51.076;3.714;2022-11-15T04:12:23;11.30;99.90
21023;DHT22;10669;51.076;3.714;2022-11-15T04:15:03;11.20;99.90
21023;DHT22;10669;51.076;3.714;2022-11-15T04:17:37;11.10;99.90
21023;DHT22;10669;51.076;3.714;2022-11-15T04:20:23;11.00;99.90
21023;DHT22;10669;51.076;3.714;2022-11-15T04:23:13;10.90;99.90
21023;DHT22;10669;51.076;3.714;2022-11-15T04:26:05;10.90;99.90
21023;DHT22;10669;51.076;3.714;2022-11-15T04:28:34;10.80;99.90
21023;DHT22;10669;51.076;3.714;2022-11-15T04:31:00;10.80;99.90
21023;DHT22;10669;51.076;3.714;2022-11-15T04:33:26;10.80;99.90
21023;DHT22;10669;51.076;3.714;2022-11-15T04:35:53;10.70;99.90
21023;DHT22;10669;51.076;3.714;2022-11-15T04:38:37;10.70;99.90
21023;DHT22;10669;51.076;3.714;2022-11-15T04:41:04;10.80;99.90
21023;DHT22;10669;51.076;3.714;2022-11-15T04:43:29;10.80;99.90
21023;DHT22;10669;51.076;3.714;2022-11-15T04:45:55;10.80;99.90
21023;DHT22;10669;51.076;3.714;2022-11-15T04:48:21;10.80;99.90
21023;DHT22;10669;51.076;3.714;2022-11-15T04:50:49;10.70;99.90
21023;DHT22;10669;51.076;3.714;2022-11-15T04:53:15;10.70;99.90
21023;DHT22;10669;51.076;3.714;2022-11-15T04:55:44;10.60;99.90
21023;DHT22;10669;51.076;3.714;2022-11-15T04:58:12;10.50;99.90
21023;DHT22;10669;51.076;3.714;2022-11-15T05:00:37;10.50;99.90
21023;DHT22;10669;51.076;3.714;2022-11-15T05:03:06;10.40;99.90
21023;DHT22;10669;51.076;3.714;2022-11-15T05:05:50;10.40;99.90
21023;DHT22;10669;51.076;3.714;2022-11-15T05:08:15;10.40;99.90
21023;DHT22;10669;51.076;3.714;2022-11-15T05:10:41;10.40;99.90
21023;DHT22;10669;51.076;3.714;2022-11-15T05:13:06;10.30;99.90
21023;DHT22;10669;51.076;3.714;2022-11-15T05:15:32;10.40;99.90
21023;DHT22;10669;51.076;3.714;2022-11-15T05:17:58;10.30;99.90
21023;DHT22;10669;51.076;3.714;2022-11-15T05:20:26;10.30;99.90
21023;DHT22;10669;51.076;3.714;2022-11-15T05:22:53;10.30;99.90
21023;DHT22;10669;51.076;3.714;2022-11-15T05:25:21;10.20;99.90
21023;DHT22;10669;51.076;3.714;2022-11-15T05:27:46;10.20;99.90
21023;DHT22;10669;51.076;3.714;2022-11-15T05:30:12;10.20;99.90
21023;DHT22;10669;51.076;3.714;2022-11-15T05:32:38;10.20;99.90
21023;DHT22;10669;51.076;3.714;2022-11-15T05:35:06;10.20;99.90
21023;DHT22;10669;51.076;3.714;2022-11-15T05:37:32;10.10;99.90
21023;DHT22;10669;51.076;3.714;2022-11-15T05:39:58;10.20;99.90
21023;DHT22;10669;51.076;3.714;2022-11-15T05:42:26;10.20;99.90
21023;DHT22;10669;51.076;3.714;2022-11-15T05:44:53;10.10;99.90
21023;DHT22;10669;51.076;3.714;2022-11-15T05:47:25;10.00;99.90
21023;DHT22;10669;51.076;3.714;2022-11-15T05:49:56;10.00;99.90
21023;DHT22;10669;51.076;3.714;2022-11-15T05:52:28;9.90;99.90
21023;DHT22;10669;51.076;3.714;2022-11-15T05:54:57;9.90;99.90
21023;DHT22;10669;51.076;3.714;2022-11-15T05:57:26;10.00;99.90
21023;DHT22;10669;51.076;3.714;2022-11-15T05:59:51;10.00;99.90
21023;DHT22;10669;51.076;3.714;2022-11-15T06:02:17;10.10;99.90
21023;DHT22;10669;51.076;3.714;2022-11-15T06:04:46;10.00;99.90
21023;DHT22;10669;51.076;3.714;2022-11-15T06:07:19;10.00;99.90
21023;DHT22;10669;51.076;3.714;2022-11-15T06:09:45;9.90;99.90
21023;DHT22;10669;51.076;3.714;2022-11-15T06:12:12;9.90;99.90
21023;DHT22;10669;51.076;3.714;2022-11-15T06:14:38;9.90;99.90
21023;DHT22;10669;51.076;3.714;2022-11-15T06:17:04;10.00;99.90
21023;DHT22;10669;51.076;3.714;2022-11-15T06:19:29;9.90;99.90
21023;DHT22;10669;51.076;3.714;2022-11-15T06:21:59;9.90;99.90
21023;DHT22;10669;51.076;3.714;2022-11-15T06:24:24;10.00;99.90
21023;DHT22;10669;51.076;3.714;2022-11-15T06:26:51;9.90;99.90
21023;DHT22;10669;51.076;3.714;2022-11-15T06:29:17;10.00;99.90
21023;DHT22;10669;51.076;3.714;2022-11-15T06:31:44;10.00;99.90
21023;DHT22;10669;51.076;3.714;2022-11-15T06:34:11;9.90;99.90
21023;DHT22;10669;51.076;3.714;2022-11-15T06:36:37;10.00;99.90
21023;DHT22;10669;51.076;3.714;2022-11-15T06:39:04;9.90;99.90
21023;DHT22;10669;51.076;3.714;2022-11-15T06:41:29;9.90;99.90
21023;DHT22;10669;51.076;3.714;2022-11-15T06:43:58;9.90;99.90
21023;DHT22;10669;51.076;3.714;2022-11-15T06:46:24;9.80;99.90
21023;DHT22;10669;51.076;3.714;2022-11-15T06:48:54;9.80;99.90
21023;DHT22;10669;51.076;3.714;2022-11-15T06:51:20;9.80;99.90
21023;DHT22;10669;51.076;3.714;2022-11-15T06:53:46;9.70;99.90
21023;DHT22;10669;51.076;3.714;2022-11-15T06:56:12;9.70;99.90
21023;DHT22;10669;51.076;3.714;2022-11-15T06:58:38;9.70;99.90
21023;DHT22;10669;51.076;3.714;2022-11-15T07:01:06;9.70;99.90
21023;DHT22;10669;51.076;3.714;2022-11-15T07:03:40;9.70;99.90
21023;DHT22;10669;51.076;3.714;2022-11-15T07:06:07;9.70;99.90
21023;DHT22;10669;51.076;3.714;2022-11-15T07:08:39;9.70;99.90
21023;DHT22;10669;51.076;3.714;2022-11-15T07:11:07;9.80;99.90
21023;DHT22;10669;51.076;3.714;2022-11-15T07:13:34;9.70;99.90
21023;DHT22;10669;51.076;3.714;2022-11-15T07:16:06;9.70;99.90
21023;DHT22;10669;51.076;3.714;2022-11-15T07:18:37;9.70;99.90
21023;DHT22;10669;51.076;3.714;2022-11-15T07:21:06;9.70;99.90
21023;DHT22;10669;51.076;3.714;2022-11-15T07:23:32;9.70;99.90
21023;DHT22;10669;51.076;3.714;2022-11-15T07:25:59;9.80;99.90
21023;DHT22;10669;51.076;3.714;2022-11-15T07:28:28;9.80;99.90
21023;DHT22;10669;51.076;3.714;2022-11-15T07:30:54;9.80;99.90
21023;DHT22;10669;51.076;3.714;2022-11-15T07:33:21;9.80;99.90
21023;DHT22;10669;51.076;3.714;2022-11-15T07:35:47;9.80;99.90
21023;DHT22;10669;51.076;3.714;2022-11-15T07:38:22;9.70;99.90
21023;DHT22;10669;51.076;3.714;2022-11-15T07:40:59;9.80;99.90
21023;DHT22;10669;51.076;3.714;2022-11-15T07:43:28;9.80;99.90
21023;DHT22;10669;51.076;3.714;2022-11-15T07:45:56;9.80;99.90
21023;DHT22;10669;51.076;3.714;2022-11-15T07:48:22;10.00;99.90
21023;DHT22;10669;51.076;3.714;2022-11-15T07:50:51;9.90;99.90
21023;DHT22;10669;51.076;3.714;2022-11-15T07:53:16;10.00;99.90
21023;DHT22;10669;51.076;3.714;2022-11-15T07:55:42;10.00;99.90
21023;DHT22;10669;51.076;3.714;2022-11-15T07:58:11;10.00;99.90
21023;DHT22;10669;51.076;3.714;2022-11-15T08:00:39;10.10;99.90
21023;DHT22;10669;51.076;3.714;2022-11-15T08:03:07;10.10;99.90
21023;DHT22;10669;51.076;3.714;2022-11-15T08:05:34;10.20;99.90
21023;DHT22;10669;51.076;3.714;2022-11-15T08:08:00;10.20;99.90
21023;DHT22;10669;51.076;3.714;2022-11-15T08:10:27;10.30;99.90
21023;DHT22;10669;51.076;3.714;2022-11-15T08:13:04;10.30;99.90
21023;DHT22;10669;51.076;3.714;2022-11-15T08:15:30;10.30;99.90
21023;DHT22;10669;51.076;3.714;2022-11-15T08:18:06;10.20;99.90
21023;DHT22;10669;51.076;3.714;2022-11-15T08:20:32;10.20;99.90
21023;DHT22;10669;51.076;3.714;2022-11-15T08:23:01;10.20;99.90
21023;DHT22;10669;51.076;3.714;2022-11-15T08:25:31;10.20;99.90
21023;DHT22;10669;51.076;3.714;2022-11-15T08:28:00;10.10;99.90
21023;DHT22;10669;51.076;3.714;2022-11-15T08:30:27;10.20;99.90
21023;DHT22;10669;51.076;3.714;2022-11-15T08:32:53;10.30;99.90
21023;DHT22;10669;51.076;3.714;2022-11-15T08:35:20;10.40;99.90
21023;DHT22;10669;51.076;3.714;2022-11-15T08:37:46;10.50;99.90
21023;DHT22;10669;51.076;3.714;2022-11-15T08:40:13;10.50;99.90
21023;DHT22;10669;51.076;3.714;2022-11-15T08:42:39;10.60;99.90
21023;DHT22;10669;51.076;3.714;2022-11-15T08:45:06;10.60;99.90
21023;DHT22;10669;51.076;3.714;2022-11-15T08:47:33;10.60;99.90
21023;DHT22;10669;51.076;3.714;2022-11-15T08:49:59;10.60;99.90
21023;DHT22;10669;51.076;3.714;2022-11-15T08:52:24;10.60;99.90
21023;DHT22;10669;51.076;3.714;2022-11-15T08:54:50;10.70;99.70
21023;DHT22;10669;51.076;3.714;2022-11-15T08:57:16;10.70;99.70
21023;DHT22;10669;51.076;3.714;2022-11-15T08:59:43;10.70;99.30
21023;DHT22;10669;51.076;3.714;2022-11-15T09:02:13;10.70;98.40
21023;DHT22;10669;51.076;3.714;2022-11-15T09:04:41;10.70;99.10
21023;DHT22;10669;51.076;3.714;2022-11-15T09:07:13;10.80;98.60
21023;DHT22;10669;51.076;3.714;2022-11-15T09:09:40;10.90;97.10
21023;DHT22;10669;51.076;3.714;2022-11-15T09:12:07;11.00;94.70
21023;DHT22;10669;51.076;3.714;2022-11-15T09:14:35;11.00;93.40
21023;DHT22;10669;51.076;3.714;2022-11-15T09:17:03;11.00;93.90
21023;DHT22;10669;51.076;3.714;2022-11-15T09:19:29;11.10;93.10
21023;DHT22;10669;51.076;3.714;2022-11-15T09:21:54;11.20;91.60
21023;DHT22;10669;51.076;3.714;2022-11-15T09:24:23;11.30;90.80
21023;DHT22;10669;51.076;3.714;2022-11-15T09:26:52;11.30;87.70
21023;DHT22;10669;51.076;3.714;2022-11-15T09:29:19;11.20;87.10
21023;DHT22;10669;51.076;3.714;2022-11-15T09:31:46;11.20;90.00
21023;DHT22;10669;51.076;3.714;2022-11-15T09:34:30;11.20;89.30
21023;DHT22;10669;51.076;3.714;2022-11-15T09:36:59;11.20;89.40
21023;DHT22;10669;51.076;3.714;2022-11-15T09:39:27;11.30;85.40
21023;DHT22;10669;51.076;3.714;2022-11-15T09:47:46;11.50;79.50
21023;DHT22;10669;51.076;3.714;2022-11-15T09:50:28;11.50;75.40
21023;DHT22;10669;51.076;3.714;2022-11-15T09:52:57;11.60;76.20
21023;DHT22;10669;51.076;3.714;2022-11-15T09:55:39;11.80;74.10
21023;DHT22;10669;51.076;3.714;2022-11-15T09:58:28;11.80;66.90
21023;DHT22;10669;51.076;3.714;2022-11-15T10:01:09;11.80;66.90
21023;DHT22;10669;51.076;3.714;2022-11-15T10:03:39;11.70;65.20
21023;DHT22;10669;51.076;3.714;2022-11-15T10:06:22;11.70;68.90
21023;DHT22;10669;51.076;3.714;2022-11-15T10:11:30;12.00;66.20
21023;DHT22;10669;51.076;3.714;2022-11-15T10:14:05;12.10;62.20
21023;DHT22;10669;51.076;3.714;2022-11-15T10:24:42;12.20;58.60
21023;DHT22;10669;51.076;3.714;2022-11-15T10:27:14;12.20;51.50
21023;DHT22;10669;51.076;3.714;2022-11-15T10:29:49;12.10;49.60
21023;DHT22;10669;51.076;3.714;2022-11-15T10:32:17;12.10;55.20
21023;DHT22;10669;51.076;3.714;2022-11-15T10:34:44;12.20;56.10
21023;DHT22;10669;51.076;3.714;2022-11-15T10:37:13;12.30;54.00
21023;DHT22;10669;51.076;3.714;2022-11-15T10:39:39;12.30;50.70
21023;DHT22;10669;51.076;3.714;2022-11-15T10:42:28;12.30;47.70
21023;DHT22;10669;51.076;3.714;2022-11-15T10:44:54;12.30;50.80
21023;DHT22;10669;51.076;3.714;2022-11-15T10:47:23;12.40;43.50
21023;DHT22;10669;51.076;3.714;2022-11-15T10:50:02;12.40;47.80
21023;DHT22;10669;51.076;3.714;2022-11-15T10:52:30;12.50;47.20
21023;DHT22;10669;51.076;3.714;2022-11-15T10:55:01;12.60;41.70
21023;DHT22;10669;51.076;3.714;2022-11-15T10:57:36;12.60;40.10
21023;DHT22;10669;51.076;3.714;2022-11-15T11:00:27;12.60;41.70
21023;DHT22;10669;51.076;3.714;2022-11-15T11:03:20;12.60;36.80
21023;DHT22;10669;51.076;3.714;2022-11-15T11:05:48;12.60;40.80
21023;DHT22;10669;51.076;3.714;2022-11-15T11:08:27;12.80;40.20
21023;DHT22;10669;51.076;3.714;2022-11-15T11:11:03;12.90;35.70
21023;DHT22;10669;51.076;3.714;2022-11-15T11:32:46;12.90;29.60
21023;DHT22;10669;51.076;3.714;2022-11-15T11:35:30;12.90;31.90
21023;DHT22;10669;51.076;3.714;2022-11-15T11:44:11;13.20;25.70
21023;DHT22;10669;51.076;3.714;2022-11-15T11:49:30;13.30;24.40
21023;DHT22;10669;51.076;3.714;2022-11-15T11:52:18;13.40;20.70
21023;DHT22;10669;51.076;3.714;2022-11-15T11:57:43;13.40;21.60
21023;DHT22;10669;51.076;3.714;2022-11-15T12:00:19;13.40;21.40
21023;DHT22;10669;51.076;3.714;2022-11-15T12:03:12;13.40;20.50
21023;DHT22;10669;51.076;3.714;2022-11-15T12:05:40;13.40;21.80
21023;DHT22;10669;51.076;3.714;2022-11-15T12:08:31;13.30;24.40
21023;DHT22;10669;51.076;3.714;2022-11-15T12:11:12;13.30;23.30
21023;DHT22;10669;51.076;3.714;2022-11-15T12:13:43;13.40;23.00
21023;DHT22;10669;51.076;3.714;2022-11-15T12:16:30;13.40;24.50
21023;DHT22;10669;51.076;3.714;2022-11-15T12:19:02;13.50;20.80
21023;DHT22;10669;51.076;3.714;2022-11-15T12:21:43;13.50;21.10
21023;DHT22;10669;51.076;3.714;2022-11-15T12:24:35;13.60;20.40
21023;DHT22;10669;51.076;3.714;2022-11-15T12:30:04;13.50;24.10
21023;DHT22;10669;51.076;3.714;2022-11-15T12:32:39;13.40;28.90
21023;DHT22;10669;51.076;3.714;2022-11-15T12:35:42;13.50;28.40
21023;DHT22;10669;51.076;3.714;2022-11-15T12:38:11;13.50;27.50
21023;DHT22;10669;51.076;3.714;2022-11-15T12:40:38;13.40;30.40
21023;DHT22;10669;51.076;3.714;2022-11-15T12:43:41;13.40;29.00
21023;DHT22;10669;51.076;3.714;2022-11-15T12:59:55;13.50;27.30
21023;DHT22;10669;51.076;3.714;2022-11-15T13:05:25;13.70;27.90
21023;DHT22;10669;51.076;3.714;2022-11-15T13:17:43;13.60;26.70
21023;DHT22;10669;51.076;3.714;2022-11-15T13:31:14;13.50;28.40
21023;DHT22;10669;51.076;3.714;2022-11-15T13:33:43;13.60;30.40
21023;DHT22;10669;51.076;3.714;2022-11-15T13:36:20;13.50;30.20
21023;DHT22;10669;51.076;3.714;2022-11-15T13:39:41;13.50;33.10
21023;DHT22;10669;51.076;3.714;2022-11-15T13:42:13;13.50;38.20
21023;DHT22;10669;51.076;3.714;2022-11-15T13:45:00;13.50;40.30
21023;DHT22;10669;51.076;3.714;2022-11-15T13:47:28;13.40;46.80
21023;DHT22;10669;51.076;3.714;2022-11-15T13:49:58;13.50;45.40
21023;DHT22;10669;51.076;3.714;2022-11-15T13:52:30;13.60;44.40
21023;DHT22;10669;51.076;3.714;2022-11-15T13:55:19;13.50;49.60
21023;DHT22;10669;51.076;3.714;2022-11-15T13:58:01;13.60;49.30
21023;DHT22;10669;51.076;3.714;2022-11-15T14:00:43;13.70;43.80
21023;DHT22;10669;51.076;3.714;2022-11-15T14:03:19;13.60;42.40
21023;DHT22;10669;51.076;3.714;2022-11-15T14:06:06;13.60;45.20
21023;DHT22;10669;51.076;3.714;2022-11-15T14:08:34;13.60;51.60
21023;DHT22;10669;51.076;3.714;2022-11-15T14:11:09;13.60;50.60
21023;DHT22;10669;51.076;3.714;2022-11-15T14:13:38;13.40;57.80
21023;DHT22;10669;51.076;3.714;2022-11-15T14:18:51;13.30;63.70
21023;DHT22;10669;51.076;3.714;2022-11-15T14:21:18;13.20;66.60
21023;DHT22;10669;51.076;3.714;2022-11-15T14:23:44;13.10;71.40
21023;DHT22;10669;51.076;3.714;2022-11-15T14:26:32;13.00;77.20
21023;DHT22;10669;51.076;3.714;2022-11-15T14:29:23;12.90;82.70
21023;DHT22;10669;51.076;3.714;2022-11-15T14:31:49;12.90;86.00
21023;DHT22;10669;51.076;3.714;2022-11-15T14:34:17;12.90;90.00
21023;DHT22;10669;51.076;3.714;2022-11-15T14:36:42;12.90;90.20
21023;DHT22;10669;51.076;3.714;2022-11-15T14:39:08;12.90;90.40
21023;DHT22;10669;51.076;3.714;2022-11-15T14:41:35;13.00;92.40
21023;DHT22;10669;51.076;3.714;2022-11-15T14:44:04;12.80;94.50
21023;DHT22;10669;51.076;3.714;2022-11-15T14:46:30;12.70;96.40
21023;DHT22;10669;51.076;3.714;2022-11-15T14:48:56;12.70;98.10
21023;DHT22;10669;51.076;3.714;2022-11-15T14:51:22;12.70;98.50
21023;DHT22;10669;51.076;3.714;2022-11-15T14:53:48;12.60;99.30
21023;DHT22;10669;51.076;3.714;2022-11-15T14:56:14;12.60;99.90
21023;DHT22;10669;51.076;3.714;2022-11-15T14:58:41;12.60;99.90
21023;DHT22;10669;51.076;3.714;2022-11-15T15:01:20;12.50;99.90
21023;DHT22;10669;51.076;3.714;2022-11-15T15:03:46;12.50;99.90
21023;DHT22;10669;51.076;3.714;2022-11-15T15:06:11;12.60;99.90
21023;DHT22;10669;51.076;3.714;2022-11-15T15:08:39;12.60;99.90
21023;DHT22;10669;51.076;3.714;2022-11-15T15:11:16;12.60;99.90
21023;DHT22;10669;51.076;3.714;2022-11-15T15:13:44;12.50;99.90
21023;DHT22;10669;51.076;3.714;2022-11-15T15:16:09;12.50;99.90
21023;DHT22;10669;51.076;3.714;2022-11-15T15:18:35;12.50;99.90
21023;DHT22;10669;51.076;3.714;2022-11-15T15:21:25;12.50;99.90
21023;DHT22;10669;51.076;3.714;2022-11-15T15:23:53;12.50;99.90
21023;DHT22;10669;51.076;3.714;2022-11-15T15:26:23;12.40;99.90
21023;DHT22;10669;51.076;3.714;2022-11-15T15:28:49;12.40;99.90
21023;DHT22;10669;51.076;3.714;2022-11-15T15:31:18;12.40;99.90
21023;DHT22;10669;51.076;3.714;2022-11-15T15:33:44;12.50;99.90
21023;DHT22;10669;51.076;3.714;2022-11-15T15:36:17;12.40;99.90
21023;DHT22;10669;51.076;3.714;2022-11-15T15:38:43;12.30;99.90
21023;DHT22;10669;51.076;3.714;2022-11-15T15:41:14;12.50;99.90
21023;DHT22;10669;51.076;3.714;2022-11-15T15:43:40;12.40;99.90
21023;DHT22;10669;51.076;3.714;2022-11-15T15:46:14;12.40;99.90
21023;DHT22;10669;51.076;3.714;2022-11-15T15:48:40;12.40;99.90
21023;DHT22;10669;51.076;3.714;2022-11-15T15:51:06;12.60;99.90
21023;DHT22;10669;51.076;3.714;2022-11-15T15:53:38;12.40;99.90
21023;DHT22;10669;51.076;3.714;2022-11-15T15:56:04;12.40;99.90
21023;DHT22;10669;51.076;3.714;2022-11-15T15:58:33;12.40;99.90
21023;DHT22;10669;51.076;3.714;2022-11-15T16:01:01;12.30;99.90
21023;DHT22;10669;51.076;3.714;2022-11-15T16:03:26;12.50;99.90
21023;DHT22;10669;51.076;3.714;2022-11-15T16:05:54;12.40;99.90
21023;DHT22;10669;51.076;3.714;2022-11-15T16:08:22;12.40;99.90
21023;DHT22;10669;51.076;3.714;2022-11-15T16:10:48;12.40;99.90
21023;DHT22;10669;51.076;3.714;2022-11-15T16:13:14;12.30;99.90
21023;DHT22;10669;51.076;3.714;2022-11-15T16:15:40;12.30;99.90
21023;DHT22;10669;51.076;3.714;2022-11-15T16:18:14;12.40;99.90
21023;DHT22;10669;51.076;3.714;2022-11-15T16:20:43;12.40;99.90
21023;DHT22;10669;51.076;3.714;2022-11-15T16:23:12;12.40;99.90
21023;DHT22;10669;51.076;3.714;2022-11-15T16:25:45;12.40;99.90
21023;DHT22;10669;51.076;3.714;2022-11-15T16:28:23;12.40;99.90
21023;DHT22;10669;51.076;3.714;2022-11-15T16:31:19;12.40;99.90
21023;DHT22;10669;51.076;3.714;2022-11-15T16:33:49;12.40;99.90
21023;DHT22;10669;51.076;3.714;2022-11-15T16:38:45;12.50;99.90
21023;DHT22;10669;51.076;3.714;2022-11-15T16:41:11;12.40;99.90
21023;DHT22;10669;51.076;3.714;2022-11-15T16:43:37;12.50;99.90
21023;DHT22;10669;51.076;3.714;2022-11-15T16:46:08;12.50;99.90
21023;DHT22;10669;51.076;3.714;2022-11-15T16:48:37;12.50;99.90
21023;DHT22;10669;51.076;3.714;2022-11-15T16:51:04;12.50;99.90
21023;DHT22;10669;51.076;3.714;2022-11-15T16:53:30;12.50;99.90
21023;DHT22;10669;51.076;3.714;2022-11-15T16:55:57;12.50;99.90
21023;DHT22;10669;51.076;3.714;2022-11-15T16:58:23;12.50;99.90
21023;DHT22;10669;51.076;3.714;2022-11-15T17:00:53;12.70;99.90
21023;DHT22;10669;51.076;3.714;2022-11-15T17:03:21;12.70;99.90
21023;DHT22;10669;51.076;3.714;2022-11-15T17:05:46;12.70;99.90
21023;DHT22;10669;51.076;3.714;2022-11-15T17:08:15;12.70;99.90
21023;DHT22;10669;51.076;3.714;2022-11-15T17:10:40;12.70;99.90
21023;DHT22;10669;51.076;3.714;2022-11-15T17:13:13;12.60;99.90
21023;DHT22;10669;51.076;3.714;2022-11-15T17:15:40;12.70;99.90
21023;DHT22;10669;51.076;3.714;2022-11-15T17:18:10;12.70;99.90
21023;DHT22;10669;51.076;3.714;2022-11-15T17:20:37;12.60;99.90
21023;DHT22;10669;51.076;3.714;2022-11-15T17:23:07;12.70;99.90
21023;DHT22;10669;51.076;3.714;2022-11-15T17:25:39;12.60;99.90
21023;DHT22;10669;51.076;3.714;2022-11-15T17:28:07;12.60;99.90
21023;DHT22;10669;51.076;3.714;2022-11-15T17:30:34;12.60;99.90
21023;DHT22;10669;51.076;3.714;2022-11-15T17:33:00;12.80;99.90
21023;DHT22;10669;51.076;3.714;2022-11-15T17:35:25;12.60;99.90
21023;DHT22;10669;51.076;3.714;2022-11-15T17:37:54;12.70;99.90
21023;DHT22;10669;51.076;3.714;2022-11-15T17:40:22;12.70;99.90
21023;DHT22;10669;51.076;3.714;2022-11-15T17:42:50;12.70;99.90
21023;DHT22;10669;51.076;3.714;2022-11-15T17:45:19;12.60;99.90
21023;DHT22;10669;51.076;3.714;2022-11-15T17:47:45;12.70;99.90